メキシコシティ の空港の天気 - METARとTAF

メキシコ・シティ国際空港 ( MMMX / MEX ) - メキシコ メキシコシティ
飛行場実況気象(Metar)
観測時間05/27 20:45 CDT (05/28 01:45 UTC)
風向・風速北北東 4m/s
視程10km以上
天気現象
全天の8割程度の雲 雲底高度 610m
全天の8割程度の雲 雲底高度 2440m
気温21℃
湿度38%
気圧1026hPa
METARMMMX 280145Z 03008KT 7SM BKN020 BKN080 21/06 A3030 NOSIG RMK 8/460 HZY CI
過去の天気等 Google飛行場航空写真 Wunderground天気予報

過去48時間のMETAR

飛行場予報(TAF)
発表時間: 5/27 18:15 CDT (5/27 23:15 UTC)
予報対象時間: 27日19時 CDT ~ 29日1時 CDT
風向・風速南西 4m/s
視程10km以上
天気現象煙霧
全天の4割程度の雲 雲底高度 610m
全天の8割程度の雲 雲底高度 2440m
27日19時 CDT ~ 27日22時 CDT に一時的に
視程10km以上
天気現象弱い雷雨
全天の4割程度の積乱雲 雲底高度 610m
27日22時 CDT から
風向・風速南 3m/s
視程10km以上
天気現象煙霧
全天の4割程度の雲 雲底高度 760m
28日8時 CDT から
風向・風速北東 2m/s
視程8050m
天気現象煙霧
全天の4割程度の雲 雲底高度 610m
28日13時 CDT から
風向・風速南西 3m/s
視程10km以上
天気現象煙霧
全天の4割程度の雲 雲底高度 910m
28日16時 CDT から
風向・風速北 6m/s
視程10km以上
天気現象煙霧
全天の8割程度の雲 雲底高度 910m
28日17時 CDT ~ 28日21時 CDT に一時的に
視程6440m
天気現象雷雨
全天の8割程度の積乱雲 雲底高度 460m
TAF MMMX 272315Z 2800/2906 22008KT 6SM HZ SCT020 BKN080 TX28/2821Z TN16/2812Z
TEMPO 2800/2803 6SM -TSRA SCT020CB
FM280300 19006KT 6SM HZ SCT025
FM281300 05004KT 5SM HZ SCT020
FM281800 23006KT 6SM HZ SCT030
FM282100 36012KT 6SM HZ BKN030
TEMPO 2822/2902 4SM TSRA BKN015CB